Aérodrome :
LOGIN :

S'inscrire | Disclaimer

   EN    FR    IT 

 










Légende :    VFR   VFR Marginal   IFR   IFR Intensif   IFR Très Intensif
Visi : 
Plafond : 
>= 8 km
>= 3000ft
5 à 8 km
1000 à 3000 ft
1500m à 5 km
500 à 1000 ft
800 à 1500m
200 à 500 ft
< 800m
< 200 ft
Symboles :   Orages  Brouillard  Fortes neiges  Fortes précipitations  Vent > 20 kt
SIGMETs :   Divers  Orages  Givrage  Turbulence  Onde Orograph.  Cendres Volcan.







- Altitude de l'aérodrome : 280 ft
- Code IATA : FAE


EKVG - Vagar

DERNIER METAR :
  • 250120Z AUTO 33014KT 9999NDV NCD 03/00 Q1023 RMK FEW220/// WIND SKEID 31011KT 270V360

METARs EXPIRÉS :
  • 250050Z AUTO 33013KT 9999NDV NCD 04/01 Q1023
  • 250020Z AUTO 32013KT 9999NDV FEW019/// 04/01 Q1023 RMK FEW160/// WIND SKEID 32013KT
  • 242350Z AUTO 31013KT 9999NDV BKN020/// 04/M00 Q1022
  • 242320Z AUTO 31011KT 9999NDV BKN023/// 04/01 Q1022 RMK BKN020/// WIND SKEID 31016KT
  • 242250Z AUTO 32011KT 9999NDV BKN020/// 04/01 Q1021 RMK BKN021/// WIND SKEID 32018G31KT 280V340

Prévision TAF périmée.
Pas de NOTAMs connus pour ce terrain.



MET'MAP, la Météo Aéronautique d'un coup d'oeil ! - Copyright ORBIFLY Décembre 2007 - Disclaimer

ORBIFLY MET'MAP TEAM :

Programmation & Développement : Alexandra Zaïnal
Conception & Développement : Baudouin d'Aumeries
Co-Programmation & Développement : Marc-Olivier Méhu
Soutien technique & logistique : Manuel Goepfert

Contact : metmap@orbifly.com




SOURCES & CREDITS :

   NOAA